Time;durP1;ratioP1;P1;durP2;ratioP2;P2;SDS_P1;SDS_P2;PMS_P1;PMS_P2;Temp;Humidity;BMP_temperature;BMP_pressure;BME280_temperature;BME280_humidity;BME280_pressure;Samples;Min_cycle;Max_cycle;Signal;HPM_P1;HPM_P2
2021/05/07 00:02:19;;;;;;;;;;;9.20;1.00;;;;;;5068609;28;20352;-72
2021/05/07 00:04:45;;;;;;;;;;;9.20;1.00;;;;;;5050948;28;20376;-72
2021/05/07 00:07:10;;;;;;;;;;;9.10;1.00;;;;;;5068340;28;19924;-73
2021/05/07 00:09:36;;;;;;;;;;;9.20;1.00;;;;;;5067668;28;19927;-72
2021/05/07 00:12:04;;;;;;;;;;;9.10;1.00;;;;;;5068421;28;19915;-72
2021/05/07 00:14:29;;;;;;;;;;;9.10;1.00;;;;;;5068953;28;19962;-72
2021/05/07 00:16:56;;;;;;;;;;;9.10;1.00;;;;;;5068523;28;19912;-72
2021/05/07 00:19:21;;;;;;;;;;;9.10;1.00;;;;;;5068363;28;19978;-72
2021/05/07 00:21:47;;;;;;;;;;;9.10;1.00;;;;;;5068576;28;19909;-72
2021/05/07 00:24:12;;;;;;;;;;;9.10;1.00;;;;;;5068120;28;19981;-71
2021/05/07 00:26:38;;;;;;;;;;;9.00;1.00;;;;;;5068307;28;20042;-71
2021/05/07 00:29:03;;;;;;;;;;;9.00;1.00;;;;;;5068117;28;20289;-70
2021/05/07 00:31:29;;;;;;;;;;;9.00;1.00;;;;;;5068660;28;19915;-71
2021/05/07 00:33:54;;;;;;;;;;;9.00;1.00;;;;;;5068835;28;20274;-71
2021/05/07 00:36:20;;;;;;;;;;;9.00;1.00;;;;;;5068685;28;19999;-70
2021/05/07 00:38:45;;;;;;;;;;;9.00;1.00;;;;;;5068074;28;20365;-70
2021/05/07 00:41:11;;;;;;;;;;;9.00;1.00;;;;;;5067738;28;20050;-71
2021/05/07 00:43:37;;;;;;;;;;;9.00;1.00;;;;;;5068825;28;20526;-71
2021/05/07 00:46:03;;;;;;;;;;;9.00;1.00;;;;;;5068968;28;20011;-71
2021/05/07 00:48:28;;;;;;;;;;;9.10;1.00;;;;;;5068773;28;20050;-71
2021/05/07 00:50:54;;;;;;;;;;;9.10;1.00;;;;;;5067883;28;20329;-72
2021/05/07 00:53:20;;;;;;;;;;;9.00;1.00;;;;;;5067966;28;19924;-72
2021/05/07 00:55:46;;;;;;;;;;;9.00;1.00;;;;;;5068965;28;19958;-71
2021/05/07 00:58:11;;;;;;;;;;;9.00;1.00;;;;;;5068222;28;19954;-72
2021/05/07 01:00:37;;;;;;;;;;;9.00;1.00;;;;;;5068049;28;19920;-72
2021/05/07 01:03:03;;;;;;;;;;;9.00;1.00;;;;;;5068376;28;20021;-72
2021/05/07 01:05:29;;;;;;;;;;;9.00;1.00;;;;;;5070800;28;19913;-71
2021/05/07 01:07:54;;;;;;;;;;;9.00;1.00;;;;;;5054068;22;20698;-69
2021/05/07 01:10:20;;;;;;;;;;;9.00;1.00;;;;;;5031877;28;20381;-68
2021/05/07 01:12:46;;;;;;;;;;;9.10;1.00;;;;;;5032227;28;20055;-68
2021/05/07 01:15:13;;;;;;;;;;;9.10;1.00;;;;;;5032988;28;20004;-68
2021/05/07 01:17:40;;;;;;;;;;;9.10;1.00;;;;;;5032610;28;19909;-68
2021/05/07 01:20:09;;;;;;;;;;;9.00;1.00;;;;;;5031593;28;19920;-69
2021/05/07 01:22:36;;;;;;;;;;;9.00;1.00;;;;;;5032300;28;19909;-68
2021/05/07 01:25:02;;;;;;;;;;;9.00;1.00;;;;;;5032438;28;19909;-68
2021/05/07 01:27:27;;;;;;;;;;;9.00;1.00;;;;;;5032003;28;19909;-68
2021/05/07 01:29:53;;;;;;;;;;;9.00;1.00;;;;;;5031462;28;20349;-68
2021/05/07 01:32:18;;;;;;;;;;;9.00;1.00;;;;;;5032747;28;19910;-68
2021/05/07 01:34:44;;;;;;;;;;;9.00;1.00;;;;;;5032368;28;20016;-68
2021/05/07 01:37:09;;;;;;;;;;;9.00;1.00;;;;;;5031798;28;19913;-69
2021/05/07 01:39:35;;;;;;;;;;;9.00;1.00;;;;;;5030958;28;20485;-68
2021/05/07 01:42:00;;;;;;;;;;;9.10;1.00;;;;;;5031578;28;19913;-68
2021/05/07 01:44:27;;;;;;;;;;;9.10;1.00;;;;;;5031961;28;20515;-69
2021/05/07 01:46:53;;;;;;;;;;;9.10;1.00;;;;;;5032055;28;19920;-68
2021/05/07 01:49:18;;;;;;;;;;;9.00;1.00;;;;;;5031361;28;19909;-68
2021/05/07 01:51:44;;;;;;;;;;;9.00;1.00;;;;;;5031644;28;19963;-68
2021/05/07 01:54:09;;;;;;;;;;;9.10;1.00;;;;;;5031200;28;20381;-68
2021/05/07 01:56:35;;;;;;;;;;;9.10;1.00;;;;;;5031619;28;19913;-69
2021/05/07 01:59:00;;;;;;;;;;;9.10;1.00;;;;;;5031222;28;19913;-68
2021/05/07 02:01:26;;;;;;;;;;;9.20;1.00;;;;;;5031578;28;20008;-68
2021/05/07 02:03:51;;;;;;;;;;;9.20;1.00;;;;;;5032043;28;19913;-69
2021/05/07 02:06:17;;;;;;;;;;;9.20;1.00;;;;;;5031412;28;20005;-69
2021/05/07 02:08:42;;;;;;;;;;;9.20;1.00;;;;;;5030759;28;20369;-69
2021/05/07 02:11:08;;;;;;;;;;;9.10;1.00;;;;;;5030396;28;19909;-68
2021/05/07 02:13:33;;;;;;;;;;;9.10;1.00;;;;;;5029739;28;20078;-69
2021/05/07 02:15:59;;;;;;;;;;;9.10;1.00;;;;;;5031327;28;19956;-68
2021/05/07 02:18:25;;;;;;;;;;;9.20;1.00;;;;;;5031494;28;19913;-68
2021/05/07 02:20:50;;;;;;;;;;;9.10;1.00;;;;;;5030607;28;19916;-68
2021/05/07 02:23:16;;;;;;;;;;;9.00;1.00;;;;;;5029761;28;19913;-69
2021/05/07 02:25:41;;;;;;;;;;;8.90;1.00;;;;;;5031414;28;19916;-68
2021/05/07 02:28:07;;;;;;;;;;;8.90;1.00;;;;;;5030499;28;19913;-68
2021/05/07 02:30:32;;;;;;;;;;;8.90;1.00;;;;;;5030618;28;19912;-68
2021/05/07 02:32:58;;;;;;;;;;;8.90;1.00;;;;;;5030652;28;20441;-68
2021/05/07 02:35:24;;;;;;;;;;;8.90;1.00;;;;;;5030973;28;20018;-68
2021/05/07 02:37:49;;;;;;;;;;;8.80;1.00;;;;;;5030598;28;19970;-68
2021/05/07 02:40:15;;;;;;;;;;;8.70;1.00;;;;;;5029094;28;19951;-68
2021/05/07 02:42:40;;;;;;;;;;;8.70;1.00;;;;;;5030506;28;19916;-68
2021/05/07 02:45:07;;;;;;;;;;;8.60;1.00;;;;;;5030783;28;20341;-68
2021/05/07 02:47:33;;;;;;;;;;;8.70;1.00;;;;;;5030565;28;20268;-68
2021/05/07 02:49:59;;;;;;;;;;;8.70;1.00;;;;;;5029544;28;19931;-68
2021/05/07 02:52:24;;;;;;;;;;;8.60;1.00;;;;;;5029537;28;19955;-69
2021/05/07 02:54:50;;;;;;;;;;;8.60;1.00;;;;;;5029405;28;20350;-68
2021/05/07 02:57:15;;;;;;;;;;;8.60;1.00;;;;;;5029926;28;19920;-68
2021/05/07 02:59:41;;;;;;;;;;;8.60;1.00;;;;;;5028818;28;19918;-68
2021/05/07 03:02:06;;;;;;;;;;;8.60;1.00;;;;;;5029105;28;19963;-68
2021/05/07 03:04:32;;;;;;;;;;;8.60;1.00;;;;;;5029247;28;19913;-68
2021/05/07 03:06:59;;;;;;;;;;;8.60;1.00;;;;;;5029870;28;20012;-68
2021/05/07 03:09:24;;;;;;;;;;;8.60;1.00;;;;;;5028447;28;19917;-68
2021/05/07 03:11:50;;;;;;;;;;;8.60;1.00;;;;;;5029496;28;20015;-69
2021/05/07 03:14:15;;;;;;;;;;;8.50;1.00;;;;;;5030013;28;19920;-69
2021/05/07 03:16:41;;;;;;;;;;;8.50;1.00;;;;;;5030507;28;19920;-68
2021/05/07 03:19:06;;;;;;;;;;;8.50;1.00;;;;;;5029343;28;20358;-68
2021/05/07 03:21:32;;;;;;;;;;;8.40;1.00;;;;;;5029931;28;19920;-69
2021/05/07 03:23:58;;;;;;;;;;;8.50;1.00;;;;;;5028851;28;19920;-69
2021/05/07 03:26:23;;;;;;;;;;;8.50;1.00;;;;;;5029354;28;19913;-69
2021/05/07 03:28:49;;;;;;;;;;;8.50;1.00;;;;;;5029162;28;19910;-69
2021/05/07 03:31:14;;;;;;;;;;;8.40;1.00;;;;;;5029311;28;19913;-69
2021/05/07 03:33:40;;;;;;;;;;;8.40;1.00;;;;;;5018824;28;19948;-69
2021/05/07 03:36:06;;;;;;;;;;;8.30;1.00;;;;;;5009974;28;19952;-69
2021/05/07 03:38:32;;;;;;;;;;;8.30;1.00;;;;;;5009016;28;19921;-69
2021/05/07 03:40:57;;;;;;;;;;;8.30;1.00;;;;;;5009676;28;19956;-69
2021/05/07 03:43:23;;;;;;;;;;;8.40;1.00;;;;;;5009654;28;19917;-69
2021/05/07 03:45:48;;;;;;;;;;;8.30;1.00;;;;;;5010117;28;19941;-69
2021/05/07 03:48:14;;;;;;;;;;;8.30;1.00;;;;;;5009489;28;19909;-69
2021/05/07 03:50:40;;;;;;;;;;;8.30;1.00;;;;;;5007664;28;19914;-69
2021/05/07 03:53:08;;;;;;;;;;;8.40;1.00;;;;;;5007615;28;20333;-69
2021/05/07 03:55:33;;;;;;;;;;;8.40;1.00;;;;;;5004909;28;19913;-70
2021/05/07 03:58:00;;;;;;;;;;;8.40;1.00;;;;;;5023690;28;20313;-69
2021/05/07 04:00:25;;;;;;;;;;;8.40;1.00;;;;;;5028492;28;19944;-69
2021/05/07 04:02:51;;;;;;;;;;;8.40;1.00;;;;;;5028147;28;19952;-69
2021/05/07 04:05:16;;;;;;;;;;;8.50;1.00;;;;;;5029016;28;19913;-69
2021/05/07 04:07:42;;;;;;;;;;;8.50;1.00;;;;;;5028527;28;19921;-69
2021/05/07 04:10:15;;;;;;;;;;;8.50;1.00;;;;;;5028439;28;19956;-69
2021/05/07 04:15:10;;;;;;;;;;;8.40;1.00;;;;;;5029551;28;19925;-69
2021/05/07 04:17:35;;;;;;;;;;;8.50;1.00;;;;;;5029278;28;19913;-69
2021/05/07 04:20:01;;;;;;;;;;;8.40;1.00;;;;;;5027955;28;20412;-69
2021/05/07 04:22:26;;;;;;;;;;;8.50;1.00;;;;;;5018863;28;19929;-69
2021/05/07 04:24:52;;;;;;;;;;;8.50;1.00;;;;;;5019786;28;19921;-69
2021/05/07 04:27:17;;;;;;;;;;;8.60;1.00;;;;;;5020227;28;19913;-69
2021/05/07 04:29:43;;;;;;;;;;;8.50;1.00;;;;;;5010167;28;19971;-69
2021/05/07 04:32:08;;;;;;;;;;;8.60;1.00;;;;;;5011327;28;19953;-69
2021/05/07 04:34:34;;;;;;;;;;;8.60;1.00;;;;;;5022085;28;19940;-69
2021/05/07 04:36:59;;;;;;;;;;;8.60;1.00;;;;;;5017778;28;19924;-69
2021/05/07 04:39:25;;;;;;;;;;;8.60;1.00;;;;;;5019439;28;19913;-69
2021/05/07 04:41:50;;;;;;;;;;;8.70;1.00;;;;;;5027311;28;19917;-69
2021/05/07 04:44:16;;;;;;;;;;;8.60;1.00;;;;;;5028548;28;19914;-69
2021/05/07 04:46:41;;;;;;;;;;;8.60;1.00;;;;;;5029037;28;19921;-69
2021/05/07 04:49:06;;;;;;;;;;;8.70;1.00;;;;;;5018801;28;19945;-69
2021/05/07 04:51:32;;;;;;;;;;;8.70;1.00;;;;;;5021817;28;19992;-69
2021/05/07 04:53:59;;;;;;;;;;;8.80;1.00;;;;;;5024177;28;20270;-69
2021/05/07 04:56:25;;;;;;;;;;;8.60;1.00;;;;;;5023746;28;20532;-69
2021/05/07 04:58:50;;;;;;;;;;;8.70;1.00;;;;;;5019550;28;19972;-69
2021/05/07 05:01:16;;;;;;;;;;;8.70;1.00;;;;;;5025029;28;19965;-68
2021/05/07 05:03:41;;;;;;;;;;;8.70;1.00;;;;;;5014406;28;19959;-69
2021/05/07 05:06:07;;;;;;;;;;;8.80;1.00;;;;;;5020895;28;19960;-69
2021/05/07 05:08:32;;;;;;;;;;;8.90;1.00;;;;;;5018635;28;19956;-68
2021/05/07 05:10:58;;;;;;;;;;;9.00;1.00;;;;;;5023414;28;19913;-69
2021/05/07 05:13:25;;;;;;;;;;;9.00;1.00;;;;;;5024066;28;19925;-69
2021/05/07 05:15:54;;;;;;;;;;;9.00;1.00;;;;;;5023584;28;19913;-68
2021/05/07 05:18:26;;;;;;;;;;;8.90;1.00;;;;;;5021602;28;19933;-70
2021/05/07 05:20:53;;;;;;;;;;;8.90;1.00;;;;;;5020150;28;19976;-69
2021/05/07 05:23:18;;;;;;;;;;;9.00;1.00;;;;;;5020749;28;19925;-69
2021/05/07 05:25:44;;;;;;;;;;;9.00;1.00;;;;;;5022306;28;19913;-70
2021/05/07 05:28:09;;;;;;;;;;;9.00;1.00;;;;;;5021729;28;19924;-70
2021/05/07 05:30:35;;;;;;;;;;;9.10;1.00;;;;;;5021205;28;19992;-69
2021/05/07 05:33:00;;;;;;;;;;;9.00;1.00;;;;;;5022831;28;19983;-69
2021/05/07 05:35:26;;;;;;;;;;;9.00;1.00;;;;;;5021544;28;19914;-68
2021/05/07 05:37:51;;;;;;;;;;;9.10;1.00;;;;;;5019465;28;20008;-68
2021/05/07 05:40:17;;;;;;;;;;;9.10;1.00;;;;;;5019525;28;20016;-68
2021/05/07 05:42:42;;;;;;;;;;;9.10;1.00;;;;;;5020749;28;20648;-69
2021/05/07 05:45:08;;;;;;;;;;;9.00;1.00;;;;;;5030444;28;19956;-69
2021/05/07 05:47:33;;;;;;;;;;;9.00;1.00;;;;;;5014302;28;19923;-68
2021/05/07 05:49:59;;;;;;;;;;;9.10;1.00;;;;;;5022048;28;19928;-69
2021/05/07 05:52:24;;;;;;;;;;;9.10;1.00;;;;;;5017041;28;19935;-69
2021/05/07 05:54:50;;;;;;;;;;;9.00;1.00;;;;;;5019750;28;20305;-69
2021/05/07 05:57:15;;;;;;;;;;;9.00;1.00;;;;;;5018126;28;19957;-69
2021/05/07 05:59:41;;;;;;;;;;;8.90;1.00;;;;;;5017991;28;20000;-69
2021/05/07 06:02:06;;;;;;;;;;;8.80;1.00;;;;;;5021577;28;19924;-69
2021/05/07 06:04:32;;;;;;;;;;;8.70;99.90;;;;;;5019732;28;19916;-67
2021/05/07 06:06:57;;;;;;;;;;;8.70;99.90;;;;;;5027181;28;19923;-68
2021/05/07 06:09:23;;;;;;;;;;;8.50;99.90;;;;;;5025562;28;21576;-69
2021/05/07 06:11:48;;;;;;;;;;;8.50;99.90;;;;;;5017661;28;19988;-69
2021/05/07 06:14:14;;;;;;;;;;;8.50;1.00;;;;;;5027970;28;19921;-69
2021/05/07 06:16:41;;;;;;;;;;;8.50;1.00;;;;;;5031322;28;19917;-69
2021/05/07 06:19:06;;;;;;;;;;;8.40;1.00;;;;;;5030220;28;19917;-69
2021/05/07 06:21:32;;;;;;;;;;;8.20;1.00;;;;;;5030705;28;19940;-69
2021/05/07 06:23:57;;;;;;;;;;;8.10;1.00;;;;;;5024006;28;19913;-69
2021/05/07 06:26:23;;;;;;;;;;;8.00;1.00;;;;;;5015921;28;19917;-69
2021/05/07 06:28:48;;;;;;;;;;;8.00;1.00;;;;;;5027585;28;20410;-69
2021/05/07 06:31:14;;;;;;;;;;;7.90;1.00;;;;;;5015338;28;19913;-69
2021/05/07 06:33:39;;;;;;;;;;;7.80;1.00;;;;;;5026129;28;20000;-69
2021/05/07 06:36:05;;;;;;;;;;;7.80;35.50;;;;;;5001830;28;19913;-69
2021/05/07 06:38:31;;;;;;;;;;;7.80;99.90;;;;;;5023313;28;20389;-69
2021/05/07 06:40:57;;;;;;;;;;;7.90;99.90;;;;;;5015699;28;19953;-69
2021/05/07 06:43:22;;;;;;;;;;;7.80;1.00;;;;;;5017491;28;20338;-70
2021/05/07 06:45:48;;;;;;;;;;;7.80;1.00;;;;;;5022831;28;19928;-71
2021/05/07 06:48:13;;;;;;;;;;;7.70;1.00;;;;;;5017072;28;19925;-70
2021/05/07 06:50:42;;;;;;;;;;;7.70;1.00;;;;;;5017959;28;19924;-70
2021/05/07 06:53:07;;;;;;;;;;;7.70;1.00;;;;;;5019246;28;19917;-70
2021/05/07 06:55:33;;;;;;;;;;;7.80;1.00;;;;;;5021167;28;20051;-70
2021/05/07 06:57:58;;;;;;;;;;;7.80;1.00;;;;;;5018538;28;19944;-70
2021/05/07 07:00:24;;;;;;;;;;;7.90;1.00;;;;;;5019234;28;20435;-71
2021/05/07 07:02:49;;;;;;;;;;;8.00;1.00;;;;;;5019592;28;20035;-70
2021/05/07 07:05:15;;;;;;;;;;;8.00;1.00;;;;;;5019541;28;19971;-70
2021/05/07 07:07:40;;;;;;;;;;;8.10;1.00;;;;;;5065674;22;20359;-70
2021/05/07 07:10:06;;;;;;;;;;;8.30;1.00;;;;;;5047619;28;19995;-69
2021/05/07 07:12:32;;;;;;;;;;;8.20;1.00;;;;;;5049489;28;19923;-71
2021/05/07 07:14:57;;;;;;;;;;;8.20;1.00;;;;;;5050181;28;19951;-69
2021/05/07 07:17:23;;;;;;;;;;;8.20;99.90;;;;;;5042699;28;19917;-70
2021/05/07 07:19:48;;;;;;;;;;;8.10;1.00;;;;;;5037641;28;19917;-68
2021/05/07 07:22:14;;;;;;;;;;;8.10;1.00;;;;;;5038905;28;20055;-71
2021/05/07 07:24:39;;;;;;;;;;;8.30;1.00;;;;;;5037479;28;19971;-69
2021/05/07 07:27:05;;;;;;;;;;;8.30;1.00;;;;;;5037772;28;19925;-70
2021/05/07 07:29:30;;;;;;;;;;;8.60;1.00;;;;;;5039740;28;20364;-68
2021/05/07 07:31:56;;;;;;;;;;;8.80;99.90;;;;;;5039673;28;19913;-69
2021/05/07 07:34:22;;;;;;;;;;;8.90;1.00;;;;;;5038292;28;19916;-69
2021/05/07 07:36:48;;;;;;;;;;;9.10;1.00;;;;;;5038361;28;19913;-71
2021/05/07 07:39:14;;;;;;;;;;;9.80;1.00;;;;;;5037168;28;19920;-71
2021/05/07 07:41:39;;;;;;;;;;;10.80;99.90;;;;;;5039724;28;19917;-70
2021/05/07 07:44:05;;;;;;;;;;;11.50;99.90;;;;;;5038885;28;19939;-69
2021/05/07 07:46:31;;;;;;;;;;;11.40;99.90;;;;;;5019045;28;20031;-69
2021/05/07 07:48:56;;;;;;;;;;;11.20;99.90;;;;;;5026993;28;20345;-69
2021/05/07 07:51:22;;;;;;;;;;;10.90;99.90;;;;;;5038009;28;19971;-70
2021/05/07 07:53:47;;;;;;;;;;;10.50;99.90;;;;;;5041351;28;19917;-69
2021/05/07 07:56:13;;;;;;;;;;;10.20;99.90;;;;;;5015606;28;19917;-69
2021/05/07 07:58:38;;;;;;;;;;;9.80;99.90;;;;;;5038657;28;20626;-68
2021/05/07 08:01:04;;;;;;;;;;;9.80;99.90;;;;;;5037701;28;20001;-70
2021/05/07 08:03:30;;;;;;;;;;;9.60;99.90;;;;;;5038978;28;19916;-70
2021/05/07 08:05:55;;;;;;;;;;;9.70;99.90;;;;;;5036928;28;19989;-70
2021/05/07 08:08:21;;;;;;;;;;;10.30;99.90;;;;;;5036554;28;19921;-70
2021/05/07 08:10:46;;;;;;;;;;;11.60;99.90;;;;;;5036708;28;19921;-72
2021/05/07 08:13:12;;;;;;;;;;;13.50;99.90;;;;;;5034733;28;20010;-70
2021/05/07 08:15:37;;;;;;;;;;;16.20;99.90;;;;;;5039934;28;20282;-69
2021/05/07 08:18:03;;;;;;;;;;;17.20;99.90;;;;;;5036999;28;19970;-71
2021/05/07 08:20:28;;;;;;;;;;;17.30;99.90;;;;;;5037694;28;19913;-69
2021/05/07 08:22:56;;;;;;;;;;;17.30;99.90;;;;;;5037499;28;19916;-70
2021/05/07 08:25:21;;;;;;;;;;;17.50;99.90;;;;;;5037043;28;19932;-69
2021/05/07 08:27:47;;;;;;;;;;;17.90;99.90;;;;;;5040647;28;20510;-68
2021/05/07 08:30:12;;;;;;;;;;;18.40;99.90;;;;;;5037024;28;19921;-72
2021/05/07 08:32:38;;;;;;;;;;;18.10;99.90;;;;;;5036683;28;20648;-69
2021/05/07 08:35:04;;;;;;;;;;;17.30;99.90;;;;;;5035848;28;20288;-70
2021/05/07 08:37:31;;;;;;;;;;;16.30;99.90;;;;;;5037086;28;21495;-70
2021/05/07 08:39:56;;;;;;;;;;;15.30;99.90;;;;;;5036056;28;19975;-70
2021/05/07 08:42:22;;;;;;;;;;;14.50;99.90;;;;;;5037843;28;19921;-70
2021/05/07 08:44:48;;;;;;;;;;;13.70;99.90;;;;;;5035879;28;19913;-70
2021/05/07 08:47:17;;;;;;;;;;;13.10;99.90;;;;;;5037665;28;19959;-73
2021/05/07 08:49:45;;;;;;;;;;;12.50;99.90;;;;;;5035059;28;20040;-70
2021/05/07 08:52:11;;;;;;;;;;;12.20;99.90;;;;;;5036285;28;19956;-70
2021/05/07 08:54:36;;;;;;;;;;;12.00;99.90;;;;;;5038036;28;19975;-70
2021/05/07 08:57:02;;;;;;;;;;;12.00;99.90;;;;;;5037807;28;20444;-68
2021/05/07 08:59:27;;;;;;;;;;;12.40;99.90;;;;;;5034843;28;19923;-69
2021/05/07 09:01:53;;;;;;;;;;;13.10;99.90;;;;;;5037471;28;19924;-70
2021/05/07 09:04:20;;;;;;;;;;;14.20;99.90;;;;;;5039273;28;20289;-70
2021/05/07 09:06:50;;;;;;;;;;;17.50;99.90;;;;;;5037320;28;19921;-72
2021/05/07 09:09:29;;;;;;;;;;;19.60;99.90;;;;;;5033330;28;20292;-70
2021/05/07 09:11:55;;;;;;;;;;;19.40;99.90;;;;;;5018362;28;21456;-70
2021/05/07 09:14:21;;;;;;;;;;;18.30;99.90;;;;;;5036643;28;20019;-69
2021/05/07 09:16:53;;;;;;;;;;;17.10;99.90;;;;;;5039929;28;20004;-71
2021/05/07 09:19:23;;;;;;;;;;;16.10;99.90;;;;;;5038760;28;19913;-69
2021/05/07 09:21:49;;;;;;;;;;;15.60;99.90;;;;;;5040093;28;20516;-70
2021/05/07 09:24:15;;;;;;;;;;;16.70;99.90;;;;;;5043458;28;20031;-69
2021/05/07 09:26:50;;;;;;;;;;;18.00;99.90;;;;;;5044732;28;19936;-70
2021/05/07 09:29:24;;;;;;;;;;;18.80;99.90;;;;;;5042083;28;19925;-73
2021/05/07 09:31:51;;;;;;;;;;;18.70;99.90;;;;;;5045537;28;20015;-70
2021/05/07 09:34:17;;;;;;;;;;;18.60;99.90;;;;;;5039727;28;19978;-69
2021/05/07 09:36:42;;;;;;;;;;;18.70;99.90;;;;;;5040039;28;20011;-70
2021/05/07 09:39:12;;;;;;;;;;;18.00;99.90;;;;;;5040594;28;19996;-72
2021/05/07 09:41:39;;;;;;;;;;;17.00;99.90;;;;;;5040137;28;19917;-70
2021/05/07 09:44:11;;;;;;;;;;;16.30;99.90;;;;;;5048048;28;19924;-70
2021/05/07 09:46:36;;;;;;;;;;;15.70;99.90;;;;;;5041564;28;20329;-70
2021/05/07 09:49:02;;;;;;;;;;;14.90;99.90;;;;;;5042297;28;20038;-69
2021/05/07 09:51:37;;;;;;;;;;;13.90;99.90;;;;;;5040101;28;19913;-69
2021/05/07 09:54:08;;;;;;;;;;;13.00;99.90;;;;;;5032978;28;20438;-69
2021/05/07 09:56:33;;;;;;;;;;;12.50;99.90;;;;;;5038076;28;19913;-70
2021/05/07 09:59:00;;;;;;;;;;;12.10;99.90;;;;;;5042847;28;19958;-70
2021/05/07 10:01:26;;;;;;;;;;;12.00;99.90;;;;;;5037816;28;19920;-69
2021/05/07 10:03:54;;;;;;;;;;;11.80;99.90;;;;;;5038549;28;19940;-69
2021/05/07 10:06:19;;;;;;;;;;;12.00;99.90;;;;;;5039327;28;19987;-70
2021/05/07 10:08:45;;;;;;;;;;;12.30;99.90;;;;;;5033265;28;20731;-68
2021/05/07 10:11:11;;;;;;;;;;;12.40;99.90;;;;;;5044605;28;20047;-68
2021/05/07 10:13:37;;;;;;;;;;;12.40;99.90;;;;;;5043300;28;20024;-70
2021/05/07 10:16:04;;;;;;;;;;;12.30;99.90;;;;;;5041270;28;19909;-69
2021/05/07 10:18:31;;;;;;;;;;;12.30;99.90;;;;;;5039974;28;19916;-68
2021/05/07 10:20:58;;;;;;;;;;;12.60;99.90;;;;;;5038061;28;20112;-68
2021/05/07 10:23:24;;;;;;;;;;;12.60;99.90;;;;;;5044986;28;19956;-71
2021/05/07 10:26:09;;;;;;;;;;;12.50;99.90;;;;;;5046588;28;19962;-71
2021/05/07 10:28:52;;;;;;;;;;;12.80;99.90;;;;;;5038822;28;19963;-70
2021/05/07 10:31:19;;;;;;;;;;;13.60;99.90;;;;;;5047950;28;19964;-73
2021/05/07 10:33:56;;;;;;;;;;;15.20;99.90;;;;;;5043016;28;20016;-70
2021/05/07 10:36:22;;;;;;;;;;;16.20;99.90;;;;;;5040683;28;19909;-71
2021/05/07 10:38:48;;;;;;;;;;;17.10;99.90;;;;;;5033609;28;19919;-70
2021/05/07 10:41:13;;;;;;;;;;;17.30;99.90;;;;;;5040562;28;19999;-68
2021/05/07 10:43:48;;;;;;;;;;;17.80;99.90;;;;;;5038644;28;20047;-68
2021/05/07 10:46:14;;;;;;;;;;;;;;;;;;5043733;28;19917;-70
2021/05/07 10:48:40;;;;;;;;;;;;;;;;;;5039779;28;19916;-69
2021/05/07 10:51:05;;;;;;;;;;;;;;;;;;5042159;28;19916;-70
2021/05/07 10:53:31;;;;;;;;;;;;;;;;;;5034176;28;19952;-71
2021/05/07 10:55:58;;;;;;;;;;;;;;;;;;5037749;28;19913;-71
2021/05/07 10:58:23;;;;;;;;;;;;;;;;;;5038443;28;19984;-72
2021/05/07 11:00:49;;;;;;;;;;;;;;;;;;5033218;28;20256;-70
2021/05/07 11:03:15;;;;;;;;;;;;;;;;;;5037929;28;19913;-70
2021/05/07 11:05:42;;;;;;;;;;;;;;;;;;5037912;28;19917;-70
2021/05/07 11:08:08;;;;;;;;;;;;;;;;;;5033460;28;20031;-69
2021/05/07 11:10:34;;;;;;;;;;;;;;;;;;5035050;28;19912;-69
2021/05/07 11:13:00;;;;;;;;;;;;;;;;;;5039733;28;20336;-71
2021/05/07 11:15:26;;;;;;;;;;;;;;;;;;5032841;28;19916;-72
2021/05/07 11:17:52;;;;;;;;;;;;;;;;;;5043939;28;19913;-68
2021/05/07 11:20:18;;;;;;;;;;;;;;;;;;5036606;28;20367;-71
2021/05/07 11:22:44;;;;;;;;;;;;;;;;;;5040919;28;19974;-69
2021/05/07 11:25:09;;;;;;;;;;;;;;;;;;5037113;28;19928;-69
2021/05/07 11:27:37;;;;;;;;;;;;;;;;;;5034527;28;19963;-70
2021/05/07 11:30:03;;;;;;;;;;;;;;;;;;5035789;28;20466;-72
2021/05/07 11:32:29;;;;;;;;;;;;;;;;;;5036456;28;19917;-70
2021/05/07 11:34:56;;;;;;;;;;;20.80;85.90;;;;;;5036858;28;19917;-71
2021/05/07 11:37:22;;;;;;;;;;;20.20;84.00;;;;;;5032512;28;20382;-71
2021/05/07 11:39:54;;;;;;;;;;;20.10;86.20;;;;;;5045364;28;20023;-71
2021/05/07 11:42:29;;;;;;;;;;;19.80;83.30;;;;;;5033923;28;19917;-68
2021/05/07 11:44:55;;;;;;;;;;;19.00;83.60;;;;;;5038302;28;19913;-69
2021/05/07 11:47:20;;;;;;;;;;;18.50;85.50;;;;;;5034887;28;19975;-68
2021/05/07 11:49:49;;;;;;;;;;;17.70;88.00;;;;;;5037261;28;20262;-70
2021/05/07 11:52:15;;;;;;;;;;;17.10;90.30;;;;;;5032941;28;19917;-67
2021/05/07 11:54:42;;;;;;;;;;;16.70;90.20;;;;;;5042469;28;19974;-70
2021/05/07 11:57:07;;;;;;;;;;;16.30;91.00;;;;;;5036959;28;19936;-70
2021/05/07 11:59:33;;;;;;;;;;;16.50;91.60;;;;;;5039220;28;20278;-70
2021/05/07 12:02:05;;;;;;;;;;;16.60;92.00;;;;;;5036508;28;19920;-69
2021/05/07 12:04:41;;;;;;;;;;;16.80;92.00;;;;;;5036426;28;19917;-68
2021/05/07 12:07:07;;;;;;;;;;;17.20;90.80;;;;;;5034899;28;19925;-69
2021/05/07 12:09:32;;;;;;;;;;;17.60;90.10;;;;;;5032299;28;19917;-70
2021/05/07 12:11:58;;;;;;;;;;;17.60;86.00;;;;;;5034044;28;19921;-69
2021/05/07 12:14:34;;;;;;;;;;;17.50;86.80;;;;;;5036884;28;19937;-69
2021/05/07 12:17:00;;;;;;;;;;;17.30;83.30;;;;;;5034042;28;19912;-70
2021/05/07 12:19:25;;;;;;;;;;;17.50;84.20;;;;;;5034640;28;19912;-69
2021/05/07 12:21:51;;;;;;;;;;;17.40;84.90;;;;;;5037300;28;20406;-69
2021/05/07 12:24:26;;;;;;;;;;;17.20;83.40;;;;;;5031050;28;19968;-70
2021/05/07 12:26:52;;;;;;;;;;;17.00;84.50;;;;;;5037524;28;19956;-68
2021/05/07 12:29:17;;;;;;;;;;;16.50;84.90;;;;;;5033858;28;19978;-70
2021/05/07 12:31:43;;;;;;;;;;;16.20;86.20;;;;;;5036863;28;19975;-70
2021/05/07 12:34:12;;;;;;;;;;;16.10;86.30;;;;;;5037022;28;20004;-69
2021/05/07 12:36:37;;;;;;;;;;;16.00;88.20;;;;;;5034429;28;19923;-68
2021/05/07 12:39:10;;;;;;;;;;;15.80;86.50;;;;;;5036447;28;19996;-70
2021/05/07 12:41:36;;;;;;;;;;;15.80;87.20;;;;;;5034420;28;20331;-70
2021/05/07 12:44:01;;;;;;;;;;;15.90;85.10;;;;;;5033051;28;20035;-71
2021/05/07 12:46:27;;;;;;;;;;;15.90;85.10;;;;;;5038820;28;19921;-69
2021/05/07 12:48:54;;;;;;;;;;;15.70;81.40;;;;;;5034914;28;19913;-68
2021/05/07 12:51:21;;;;;;;;;;;15.50;81.00;;;;;;5034980;28;19917;-70
2021/05/07 12:53:47;;;;;;;;;;;15.20;79.80;;;;;;5033763;28;20223;-68
2021/05/07 12:56:16;;;;;;;;;;;15.20;77.80;;;;;;5020538;28;20054;-68
2021/05/07 12:58:41;;;;;;;;;;;15.00;77.80;;;;;;5038986;28;19924;-69
2021/05/07 13:01:07;;;;;;;;;;;14.80;78.00;;;;;;5036204;28;19917;-69
2021/05/07 13:03:33;;;;;;;;;;;14.70;78.20;;;;;;5039405;28;19953;-70
2021/05/07 13:05:58;;;;;;;;;;;14.90;77.40;;;;;;5037519;28;19996;-71
2021/05/07 13:08:24;;;;;;;;;;;15.00;78.50;;;;;;5040413;28;19925;-72
2021/05/07 13:10:49;;;;;;;;;;;15.20;75.30;;;;;;5039175;28;20248;-71
2021/05/07 13:13:15;;;;;;;;;;;15.20;74.80;;;;;;5036327;28;19971;-72
2021/05/07 13:15:41;;;;;;;;;;;14.90;74.20;;;;;;5043057;28;19921;-70
2021/05/07 13:18:07;;;;;;;;;;;15.20;75.00;;;;;;5034142;28;19913;-70
2021/05/07 13:20:32;;;;;;;;;;;15.10;74.20;;;;;;5035342;28;19912;-71
2021/05/07 13:22:58;;;;;;;;;;;15.00;75.20;;;;;;5034203;28;19917;-71
2021/05/07 13:25:23;;;;;;;;;;;15.10;74.10;;;;;;5035729;28;19916;-72
2021/05/07 13:27:50;;;;;;;;;;;15.20;73.90;;;;;;5038109;28;19924;-73
2021/05/07 13:30:16;;;;;;;;;;;15.10;74.30;;;;;;5019237;28;19919;-72
2021/05/07 13:32:42;;;;;;;;;;;15.40;73.40;;;;;;5039305;28;19951;-72
2021/05/07 13:35:09;;;;;;;;;;;15.30;73.10;;;;;;5036794;28;19997;-71
2021/05/07 13:37:35;;;;;;;;;;;15.50;74.90;;;;;;5037168;28;19935;-71
2021/05/07 13:40:01;;;;;;;;;;;15.50;76.60;;;;;;5035150;28;19980;-72
2021/05/07 13:42:28;;;;;;;;;;;15.60;75.80;;;;;;5036977;28;20337;-71
2021/05/07 13:44:53;;;;;;;;;;;15.80;76.10;;;;;;5041070;28;20008;-69
2021/05/07 13:47:19;;;;;;;;;;;15.90;76.80;;;;;;5040087;28;20632;-69
2021/05/07 13:49:44;;;;;;;;;;;15.80;75.60;;;;;;5037488;28;20353;-69
2021/05/07 13:52:10;;;;;;;;;;;15.80;75.60;;;;;;5038057;28;20011;-69
2021/05/07 13:54:35;;;;;;;;;;;15.80;76.10;;;;;;5038465;28;19924;-69
2021/05/07 13:57:01;;;;;;;;;;;15.50;75.90;;;;;;5034733;28;19913;-70
2021/05/07 13:59:26;;;;;;;;;;;15.20;73.40;;;;;;5040401;28;19913;-70
2021/05/07 14:01:52;;;;;;;;;;;15.10;73.50;;;;;;5038263;28;19917;-70
2021/05/07 14:04:17;;;;;;;;;;;14.90;74.00;;;;;;5038025;28;19913;-69
2021/05/07 14:06:43;;;;;;;;;;;14.80;74.20;;;;;;5039269;28;19939;-69
2021/05/07 14:09:09;;;;;;;;;;;14.90;72.40;;;;;;5034923;28;19920;-72
2021/05/07 14:11:35;;;;;;;;;;;15.10;73.00;;;;;;5036667;28;19920;-69
2021/05/07 14:14:05;;;;;;;;;;;15.10;74.30;;;;;;5036904;28;20285;-70
2021/05/07 14:16:31;;;;;;;;;;;14.90;74.20;;;;;;5037275;28;19913;-69
2021/05/07 14:18:56;;;;;;;;;;;14.80;76.90;;;;;;5042069;28;20017;-69
2021/05/07 14:21:22;;;;;;;;;;;14.60;74.90;;;;;;5045845;28;20333;-69
2021/05/07 14:23:49;;;;;;;;;;;14.60;75.90;;;;;;5039169;28;19986;-71
2021/05/07 14:26:15;;;;;;;;;;;14.70;76.60;;;;;;5041965;28;19951;-69
2021/05/07 14:28:41;;;;;;;;;;;14.90;74.90;;;;;;5036746;28;19917;-69
2021/05/07 14:31:06;;;;;;;;;;;14.90;74.60;;;;;;5035769;28;19971;-69
2021/05/07 14:33:32;;;;;;;;;;;14.70;72.80;;;;;;5033904;28;21360;-70
2021/05/07 14:35:57;;;;;;;;;;;14.60;74.30;;;;;;5042919;28;19916;-69